Time;durP1;ratioP1;P1;durP2;ratioP2;P2;SDS_P1;SDS_P2;PMS_P1;PMS_P2;Temp;Humidity;BMP_temperature;BMP_pressure;BME280_temperature;BME280_humidity;BME280_pressure;Samples;Min_cycle;Max_cycle;Signal;HPM_P1;HPM_P2
2021/03/19 00:00:49;;;;;;;11.40;10.30;;;;;;;-0.40;100.00;97978.75;5001389;28;20213;-70
2021/03/19 00:03:16;;;;;;;9.60;8.80;;;;;;;-0.41;100.00;97974.47;4997083;28;20226;-70
2021/03/19 00:05:44;;;;;;;11.50;10.43;;;;;;;-0.37;100.00;97975.97;5001842;28;20255;-68
2021/03/19 00:08:10;;;;;;;10.40;9.40;;;;;;;-0.45;100.00;97971.22;5007762;28;20651;-68
2021/03/19 00:10:37;;;;;;;10.30;9.50;;;;;;;-0.42;100.00;97975.41;5003100;28;20215;-70
2021/03/19 00:13:08;;;;;;;10.33;9.53;;;;;;;-0.43;100.00;97971.13;4995793;28;20213;-71
2021/03/19 00:15:36;;;;;;;10.37;9.47;;;;;;;-0.46;100.00;97969.53;4999347;28;20283;-69
2021/03/19 00:18:05;;;;;;;10.70;9.77;;;;;;;-0.57;100.00;97965.94;4997946;28;20226;-70
2021/03/19 00:20:34;;;;;;;11.60;10.40;;;;;;;-0.46;100.00;97968.72;5005084;28;20699;-71
2021/03/19 00:23:02;;;;;;;10.27;9.37;;;;;;;-0.49;100.00;97966.31;5002140;28;20583;-69
2021/03/19 00:25:29;;;;;;;12.67;10.23;;;;;;;-0.55;100.00;97967.53;4993549;28;20215;-70
2021/03/19 00:27:56;;;;;;;11.80;10.70;;;;;;;-0.63;100.00;97962.78;5001659;28;20508;-68
2021/03/19 00:30:24;;;;;;;13.13;11.93;;;;;;;-0.63;100.00;97967.97;4992496;28;20239;-69
2021/03/19 00:32:51;;;;;;;11.93;10.83;;;;;;;-0.67;100.00;97965.69;5002129;28;20219;-70
2021/03/19 00:35:19;;;;;;;13.43;12.03;;;;;;;-0.71;100.00;97964.19;5005420;28;20209;-69
2021/03/19 00:37:46;;;;;;;13.80;12.33;;;;;;;-0.74;100.00;97965.22;4996461;28;20613;-70
2021/03/19 00:40:14;;;;;;;12.20;11.00;;;;;;;-0.75;100.00;97961.78;5010902;28;20624;-68
2021/03/19 00:42:43;;;;;;;13.73;12.33;;;;;;;-0.82;100.00;97965.66;4991788;28;20524;-69
2021/03/19 00:45:12;;;;;;;12.93;11.73;;;;;;;-0.95;100.00;97968.16;5006548;28;20539;-70
2021/03/19 00:47:40;;;;;;;12.70;11.50;;;;;;;-0.95;100.00;97964.75;5002182;28;20208;-69
2021/03/19 00:50:10;;;;;;;13.30;12.10;;;;;;;-1.02;100.00;97959.06;4997938;28;20209;-71
2021/03/19 00:52:37;;;;;;;13.37;12.27;;;;;;;-0.94;100.00;97961.22;5002904;28;20209;-68
2021/03/19 00:55:07;;;;;;;13.07;11.63;;;;;;;-0.88;100.00;97963.44;5000371;28;20535;-70
2021/03/19 00:57:34;;;;;;;14.07;12.67;;;;;;;-0.90;100.00;97965.28;5001125;28;20604;-69
2021/03/19 01:00:01;;;;;;;12.93;11.67;;;;;;;-0.99;100.00;97966.69;5001758;28;20213;-69
2021/03/19 01:02:28;;;;;;;12.70;11.57;;;;;;;-0.86;100.00;97958.16;5001411;28;20204;-69
2021/03/19 01:04:56;;;;;;;13.60;12.30;;;;;;;-0.82;100.00;97963.06;5002084;28;20227;-70
2021/03/19 01:07:23;;;;;;;13.40;12.07;;;;;;;-0.79;100.00;97957.66;5003928;28;20285;-69
2021/03/19 01:09:50;;;;;;;14.50;13.10;;;;;;;-0.76;100.00;97959.25;4998404;28;20201;-70
2021/03/19 01:12:17;;;;;;;14.87;12.77;;;;;;;-0.80;100.00;97957.78;5000344;28;20254;-69
2021/03/19 01:14:44;;;;;;;16.23;13.13;;;;;;;-0.72;100.00;97958.13;4991563;28;20284;-70
2021/03/19 01:17:11;;;;;;;14.50;12.97;;;;;;;-0.76;100.00;97957.50;4999494;28;20205;-70
2021/03/19 01:19:38;;;;;;;13.80;12.50;;;;;;;-0.53;100.00;97962.22;4996675;28;20233;-69
2021/03/19 01:22:07;;;;;;;14.10;12.80;;;;;;;-0.63;100.00;97967.16;4997270;28;20205;-69
2021/03/19 01:24:34;;;;;;;14.57;13.13;;;;;;;-0.69;100.00;97973.56;4988956;28;20240;-70
2021/03/19 01:27:01;;;;;;;14.60;13.33;;;;;;;-0.68;100.00;97972.63;4996219;28;20213;-68
2021/03/19 01:29:28;;;;;;;16.43;14.83;;;;;;;-0.64;100.00;97971.50;4998355;28;20205;-69
2021/03/19 01:31:55;;;;;;;14.93;13.53;;;;;;;-0.70;100.00;97964.09;4991809;28;20209;-69
2021/03/19 01:34:22;;;;;;;16.20;14.70;;;;;;;-0.70;100.00;97966.69;4992212;28;20226;-70
2021/03/19 01:36:49;;;;;;;15.90;14.20;;;;;;;-0.73;100.00;97961.69;5000485;28;20216;-70
2021/03/19 01:39:17;;;;;;;16.87;14.70;;;;;;;-0.75;100.00;97964.38;4994247;28;20235;-69
2021/03/19 01:41:45;;;;;;;16.73;14.43;;;;;;;-0.62;100.00;97961.84;5001648;28;20208;-70
2021/03/19 01:44:14;;;;;;;16.33;14.73;;;;;;;-0.72;100.00;97963.34;4996489;28;20803;-69
2021/03/19 01:47:18;;;;;;;16.30;14.67;;;;;;;-0.62;100.00;97961.84;4987993;28;20209;-69
2021/03/19 01:50:22;;;;;;;16.10;14.30;;;;;;;-0.67;100.00;97958.69;4995181;28;20239;-69
2021/03/19 01:53:26;;;;;;;16.30;14.73;;;;;;;-0.65;100.00;97964.63;5002803;28;20632;-67
2021/03/19 01:56:31;;;;;;;15.53;13.93;;;;;;;-0.61;100.00;97960.91;4989776;28;20686;-69
2021/03/19 01:59:31;;;;;;;16.83;15.07;;;;;;;-0.57;100.00;97961.56;4994385;28;20224;-72
2021/03/19 02:02:35;;;;;;;16.53;14.67;;;;;;;-0.64;100.00;97948.09;4961914;28;20423;-70
2021/03/19 02:05:41;;;;;;;15.80;14.27;;;;;;;-0.69;100.00;97957.94;4994507;28;20457;-70
2021/03/19 02:08:45;;;;;;;18.00;16.20;;;;;;;-0.66;100.00;97962.16;4996050;28;20207;-68
2021/03/19 02:11:49;;;;;;;16.10;14.53;;;;;;;-0.61;100.00;97954.88;4995668;28;20205;-68
2021/03/19 02:14:53;;;;;;;18.23;16.53;;;;;;;-0.62;100.00;97953.22;4992357;28;20236;-70
2021/03/19 02:18:05;;;;;;;16.70;15.17;;;;;;;-0.63;100.00;97944.56;4995830;28;20208;-70
2021/03/19 02:21:10;;;;;;;18.40;16.53;;;;;;;-0.73;100.00;97941.72;4960450;28;20237;-70
2021/03/19 02:24:14;;;;;;;16.77;15.17;;;;;;;-0.75;100.00;97937.50;4990354;28;20557;-70
2021/03/19 02:27:18;;;;;;;17.43;15.80;;;;;;;-0.67;100.00;97939.66;4991958;28;20219;-72
2021/03/19 02:30:22;;;;;;;17.53;15.73;;;;;;;-0.68;100.00;97943.19;4992698;28;20806;-69
2021/03/19 02:32:50;;;;;;;18.50;16.80;;;;;;;-0.62;100.00;97932.38;4992092;28;20577;-70
2021/03/19 02:35:19;;;;;;;17.60;15.87;;;;;;;-0.61;100.00;97931.47;4994480;28;20204;-71
2021/03/19 02:37:46;;;;;;;18.60;16.87;;;;;;;-0.61;100.00;97936.66;4993128;28;20228;-69
2021/03/19 02:40:15;;;;;;;18.63;16.67;;;;;;;-0.58;100.00;97936.47;4994925;28;20305;-69
2021/03/19 02:42:42;;;;;;;18.20;16.30;;;;;;;-0.56;100.00;97932.00;4993495;28;20206;-70
2021/03/19 02:45:12;;;;;;;17.97;16.20;;;;;;;-0.55;100.00;97930.25;4987913;28;20295;-69
2021/03/19 02:47:39;;;;;;;20.27;18.07;;;;;;;-0.55;100.00;97925.03;4989821;28;20234;-70
2021/03/19 02:50:09;;;;;;;18.47;16.10;;;;;;;-0.52;100.00;97927.47;4995017;28;20998;-69
2021/03/19 02:52:39;;;;;;;19.23;17.17;;;;;;;-0.52;100.00;97927.47;4989619;28;20209;-68
2021/03/19 02:55:09;;;;;;;17.63;15.93;;;;;;;-0.47;100.00;97928.00;4991176;28;20768;-68
2021/03/19 02:57:36;;;;;;;19.50;17.30;;;;;;;-0.56;100.00;97928.59;4995292;28;20457;-68
2021/03/19 03:00:04;;;;;;;18.50;16.70;;;;;;;-0.57;100.00;97927.72;4994352;28;20571;-71
2021/03/19 03:02:31;;;;;;;19.90;17.80;;;;;;;-0.52;100.00;97928.28;4995339;28;20215;-70
2021/03/19 03:04:59;;;;;;;19.00;16.93;;;;;;;-0.40;100.00;97929.28;4992305;28;20225;-72
2021/03/19 03:07:31;;;;;;;18.63;16.83;;;;;;;-0.54;100.00;97927.53;4983178;28;20217;-71
2021/03/19 03:10:00;;;;;;;19.97;18.07;;;;;;;-0.68;100.00;97928.38;4983517;28;20655;-68
2021/03/19 03:12:28;;;;;;;20.27;18.20;;;;;;;-0.73;100.00;97931.28;4990528;28;20205;-69
2021/03/19 03:14:56;;;;;;;18.03;16.33;;;;;;;-0.67;100.00;97930.06;4991895;28;20236;-68
2021/03/19 03:17:23;;;;;;;20.27;17.20;;;;;;;-0.63;100.00;97926.34;5004169;28;20213;-69
2021/03/19 03:19:52;;;;;;;19.07;17.20;;;;;;;-0.74;100.00;97929.63;4992591;28;20237;-70
2021/03/19 03:22:39;;;;;;;19.00;17.10;;;;;;;-0.79;100.00;97933.44;4998743;28;20215;-69
2021/03/19 03:25:08;;;;;;;20.23;17.43;;;;;;;-0.80;100.00;97931.75;4988526;28;20609;-69
2021/03/19 03:27:35;;;;;;;19.17;17.20;;;;;;;-0.84;100.00;97938.09;4992964;28;20402;-70
2021/03/19 03:30:06;;;;;;;19.00;17.07;;;;;;;-0.71;100.00;97927.75;5004442;28;20213;-70
2021/03/19 03:32:33;;;;;;;20.07;17.90;;;;;;;-0.86;100.00;97932.13;5001815;28;20200;-69
2021/03/19 03:35:01;;;;;;;18.67;16.90;;;;;;;-0.83;100.00;97926.75;5000887;28;20230;-69
2021/03/19 03:37:28;;;;;;;18.97;17.17;;;;;;;-0.94;100.00;97936.03;4993980;28;20206;-71
2021/03/19 03:39:56;;;;;;;17.93;16.13;;;;;;;-1.00;100.00;97931.19;4996741;28;20243;-69
2021/03/19 03:42:23;;;;;;;19.40;17.37;;;;;;;-1.07;100.00;97940.28;5001271;28;20604;-71
2021/03/19 03:44:50;;;;;;;19.70;17.80;;;;;;;-1.11;100.00;97931.00;4998641;28;20224;-69
2021/03/19 03:47:16;;;;;;;19.50;17.40;;;;;;;-1.11;100.00;97931.00;4995513;28;20208;-70
2021/03/19 03:49:44;;;;;;;19.80;17.80;;;;;;;-0.99;100.00;97929.44;4999980;28;20239;-70
2021/03/19 03:52:11;;;;;;;20.80;17.57;;;;;;;-1.05;100.00;97936.69;4995555;28;20206;-71
2021/03/19 03:54:38;;;;;;;20.13;18.03;;;;;;;-1.03;100.00;97932.22;4991624;28;20740;-69
2021/03/19 03:57:06;;;;;;;20.13;17.97;;;;;;;-1.12;100.00;97929.34;4992758;28;20208;-71
2021/03/19 03:59:33;;;;;;;19.17;17.17;;;;;;;-1.08;100.00;97925.63;4993518;28;20237;-69
2021/03/19 04:02:15;;;;;;;19.47;17.50;;;;;;;-1.12;100.00;97935.38;4984993;28;20202;-69
2021/03/19 04:04:42;;;;;;;19.53;17.60;;;;;;;-1.11;100.00;97931.84;4994066;28;20232;-69
2021/03/19 04:07:10;;;;;;;18.07;16.30;;;;;;;-1.07;100.00;97933.34;4995667;28;20209;-71
2021/03/19 04:09:38;;;;;;;19.33;17.43;;;;;;;-1.09;100.00;97937.81;4987458;28;20405;-69
2021/03/19 04:12:07;;;;;;;20.57;18.37;;;;;;;-1.03;100.00;97944.38;5006554;28;20853;-68
2021/03/19 04:14:34;;;;;;;22.10;18.30;;;;;;;-1.09;100.00;97944.75;4995957;28;20240;-69
2021/03/19 04:17:06;;;;;;;20.97;18.73;;;;;;;-0.89;100.00;97939.19;5002887;28;20594;-69
2021/03/19 04:19:33;;;;;;;21.27;19.03;;;;;;;-0.82;100.00;97941.41;4996827;28;20244;-71
2021/03/19 04:22:00;;;;;;;20.27;18.27;;;;;;;-0.74;100.00;97939.19;4992665;28;20222;-69
2021/03/19 04:24:27;;;;;;;21.77;18.70;;;;;;;-0.74;100.00;97947.00;5000118;28;20750;-69
2021/03/19 04:26:54;;;;;;;21.87;19.53;;;;;;;-0.87;100.00;97944.28;5000128;28;20231;-69
2021/03/19 04:29:22;;;;;;;20.33;18.23;;;;;;;-1.03;100.00;97947.84;4998063;28;20207;-69
2021/03/19 04:31:49;;;;;;;19.90;17.80;;;;;;;-1.11;100.00;97933.59;5003630;28;20228;-67
2021/03/19 04:34:16;;;;;;;20.17;18.10;;;;;;;-1.10;100.00;97936.13;5008171;28;20264;-66
2021/03/19 04:36:45;;;;;;;22.27;20.00;;;;;;;-1.07;100.00;97943.75;5007470;28;20213;-66
2021/03/19 04:39:15;;;;;;;21.80;19.60;;;;;;;-1.03;100.00;97946.97;5006971;28;20225;-66
2021/03/19 04:41:44;;;;;;;21.50;19.33;;;;;;;-1.04;100.00;97947.91;5007087;28;20323;-68
2021/03/19 04:44:11;;;;;;;21.17;18.87;;;;;;;-1.08;100.00;97944.69;5011947;28;20235;-67
2021/03/19 04:46:39;;;;;;;21.87;19.57;;;;;;;-0.99;100.00;97945.03;5005306;28;20787;-67
2021/03/19 04:49:07;;;;;;;20.73;18.57;;;;;;;-0.96;100.00;97950.88;5003072;28;20297;-67
2021/03/19 04:51:36;;;;;;;19.50;17.57;;;;;;;-1.07;100.00;97946.34;5004993;28;20648;-68
2021/03/19 04:54:04;;;;;;;22.17;18.90;;;;;;;-1.13;100.00;97944.13;5001214;28;20235;-69
2021/03/19 04:56:31;;;;;;;20.47;18.50;;;;;;;-1.20;100.00;97941.03;5003769;28;20722;-69
2021/03/19 04:58:58;;;;;;;21.97;19.53;;;;;;;-1.28;100.00;97945.00;5003422;28;20228;-69
2021/03/19 05:01:25;;;;;;;21.70;19.13;;;;;;;-1.25;100.00;97937.88;4999810;28;20201;-67
2021/03/19 05:03:54;;;;;;;21.73;19.53;;;;;;;-1.28;100.00;97939.81;5005140;28;20229;-68
2021/03/19 05:06:21;;;;;;;21.50;19.30;;;;;;;-1.22;100.00;97937.69;4994842;28;20200;-69
2021/03/19 05:08:48;;;;;;;19.93;18.00;;;;;;;-1.15;100.00;97945.94;4999783;28;20212;-69
2021/03/19 05:11:17;;;;;;;21.57;19.27;;;;;;;-1.20;100.00;97943.63;5000023;28;20205;-68
2021/03/19 05:13:45;;;;;;;21.03;18.73;;;;;;;-1.11;100.00;97944.00;4996962;28;20237;-70
2021/03/19 05:16:12;;;;;;;22.10;19.67;;;;;;;-1.12;100.00;97951.00;4998774;28;20227;-69
2021/03/19 05:18:40;;;;;;;20.37;18.30;;;;;;;-1.19;100.00;97950.50;5002492;28;20225;-70
2021/03/19 05:21:11;;;;;;;22.47;20.07;;;;;;;-1.18;100.00;97948.72;5008984;28;20565;-68
2021/03/19 05:23:38;;;;;;;22.00;18.13;;;;;;;-1.10;100.00;97950.88;5003998;28;21173;-69
2021/03/19 05:26:05;;;;;;;23.60;19.10;;;;;;;-1.03;100.00;97958.25;5004608;28;20209;-68
2021/03/19 05:28:33;;;;;;;23.20;20.60;;;;;;;-0.85;100.00;97955.44;5004496;28;20204;-67
2021/03/19 05:31:00;;;;;;;23.93;21.23;;;;;;;-0.93;100.00;97966.34;5002201;28;20220;-67
2021/03/19 05:33:30;;;;;;;22.90;20.47;;;;;;;-0.88;100.00;97961.69;5005882;28;20293;-69
2021/03/19 05:35:58;;;;;;;21.70;19.53;;;;;;;-0.92;100.00;97968.00;5001597;28;20205;-69
2021/03/19 05:38:26;;;;;;;22.03;19.73;;;;;;;-0.93;100.00;97973.28;5002930;28;20211;-68
2021/03/19 05:40:57;;;;;;;21.10;19.07;;;;;;;-0.82;100.00;97967.44;5002172;28;21111;-69
2021/03/19 05:43:27;;;;;;;21.90;19.60;;;;;;;-0.81;100.00;97969.94;5000627;28;20620;-70
2021/03/19 05:45:57;;;;;;;21.57;19.37;;;;;;;-0.80;100.00;97969.00;5001739;28;20223;-69
2021/03/19 05:48:25;;;;;;;21.00;18.67;;;;;;;-0.61;100.00;97978.31;5002251;28;20391;-70
2021/03/19 05:50:53;;;;;;;23.00;19.93;;;;;;;-0.67;100.00;97970.88;5003154;28;20787;-72
2021/03/19 05:53:22;;;;;;;21.90;19.57;;;;;;;-0.70;100.00;97977.09;5003771;28;20236;-70
2021/03/19 05:55:50;;;;;;;22.93;20.53;;;;;;;-0.74;100.00;97979.06;5001622;28;20460;-70
2021/03/19 05:58:23;;;;;;;23.23;20.90;;;;;;;-0.65;100.00;97977.66;5001515;28;20645;-70
2021/03/19 06:00:54;;;;;;;22.83;20.40;;;;;;;-0.73;100.00;97982.50;4995061;28;20212;-72
2021/03/19 06:03:22;;;;;;;22.30;19.97;;;;;;;-0.75;100.00;97979.16;5001105;28;20235;-71
2021/03/19 06:06:00;;;;;;;23.87;21.37;;;;;;;-0.54;100.00;97982.22;5001654;28;20209;-71
2021/03/19 06:08:29;;;;;;;22.37;20.07;;;;;;;-0.54;100.00;97984.81;4999907;28;20607;-71
2021/03/19 06:11:13;;;;;;;23.77;21.30;;;;;;;-0.45;100.00;97986.03;5002733;28;20672;-69
2021/03/19 06:13:47;;;;;;;21.70;19.23;;;;;;;-0.23;100.00;97980.31;4996809;28;20480;-71
2021/03/19 06:16:20;;;;;;;23.20;20.70;;;;;;;-0.31;100.00;97990.38;4995214;28;20208;-69
2021/03/19 06:18:48;;;;;;;23.33;20.40;;;;;;;-0.35;100.00;97989.72;4996421;28;20595;-71
2021/03/19 06:21:22;;;;;;;22.23;20.00;;;;;;;-0.33;100.00;97994.84;4994844;28;20404;-70
2021/03/19 06:24:02;;;;;;;23.10;20.80;;;;;;;-0.31;100.00;97993.81;4999309;28;20625;-70
2021/03/19 06:26:32;;;;;;;24.33;21.80;;;;;;;-0.23;100.00;97995.09;4994953;28;20213;-71
2021/03/19 06:29:14;;;;;;;23.83;21.27;;;;;;;0.16;100.00;97990.06;4994832;28;20209;-71
2021/03/19 06:31:43;;;;;;;22.77;20.47;;;;;;;0.11;100.00;97992.97;4998133;28;20425;-70
2021/03/19 06:34:15;;;;;;;22.80;20.40;;;;;;;-0.03;100.00;97988.63;4993152;28;20235;-69
2021/03/19 06:36:55;;;;;;;24.47;21.87;;;;;;;0.20;100.00;97999.38;4999298;28;20519;-70
2021/03/19 06:39:25;;;;;;;23.13;20.57;;;;;;;0.33;100.00;97994.19;4998098;28;20223;-71
2021/03/19 06:42:10;;;;;;;23.30;20.10;;;;;;;0.28;100.00;97997.09;5003058;28;20235;-71
2021/03/19 06:44:37;;;;;;;23.07;20.57;;;;;;;0.25;100.00;97992.94;4999392;28;21065;-70
2021/03/19 06:47:07;;;;;;;23.77;21.27;;;;;;;0.21;100.00;97994.06;4998750;28;20201;-71
2021/03/19 06:49:51;;;;;;;25.00;22.30;;;;;;;0.23;100.00;97993.94;4997578;28;20201;-71
2021/03/19 06:52:25;;;;;;;29.10;23.33;;;;;;;0.19;100.00;97995.09;4996864;28;20262;-70
2021/03/19 06:54:55;;;;;;;25.40;22.13;;;;;;;0.14;100.00;98003.19;5000408;28;20231;-71
2021/03/19 06:57:25;;;;;;;24.57;21.73;;;;;;;0.12;100.00;98003.31;5000397;28;20205;-71
2021/03/19 06:59:54;;;;;;;24.30;21.73;;;;;;;0.08;100.00;98004.44;5003374;28;20224;-72
2021/03/19 07:02:55;;;;;;;24.20;21.63;;;;;;;0.10;100.00;98005.16;5003027;28;20211;-71
2021/03/19 07:05:40;;;;;;;26.43;21.93;;;;;;;-0.03;100.00;98005.09;4987970;28;20207;-70
2021/03/19 07:08:30;;;;;;;25.70;21.50;;;;;;;0.08;100.00;97999.22;5002839;28;20592;-73
2021/03/19 07:11:07;;;;;;;25.43;22.67;;;;;;;0.08;100.00;98009.66;4998271;28;20305;-71
2021/03/19 07:13:52;;;;;;;26.90;22.20;;;;;;;-0.03;100.00;98007.72;5000670;28;20244;-74
2021/03/19 07:16:22;;;;;;;24.87;22.20;;;;;;;-0.12;100.00;98008.28;4993407;28;20247;-70
2021/03/19 07:19:12;;;;;;;26.10;22.70;;;;;;;-0.02;100.00;98009.38;5001293;28;20327;-71
2021/03/19 07:22:03;;;;;;;28.47;23.37;;;;;;;-0.04;100.00;98013.84;4995754;28;20216;-73
2021/03/19 07:24:50;;;;;;;25.30;22.43;;;;;;;-0.10;100.00;98016.00;5002061;28;20236;-71
2021/03/19 07:27:28;;;;;;;26.87;23.20;;;;;;;-0.17;100.00;98023.38;4998584;28;20205;-75
2021/03/19 07:30:06;;;;;;;26.07;23.00;;;;;;;-0.20;100.00;98027.00;5001041;28;20645;-73
2021/03/19 07:33:19;;;;;;;26.97;21.60;;;;;;;-0.27;100.00;98030.06;4999159;28;20201;-71
2021/03/19 07:35:58;;;;;;;23.77;19.80;;;;;;;-0.39;100.00;98036.88;4973254;28;20215;-73
2021/03/19 07:38:35;;;;;;;21.87;19.27;;;;;;;-0.06;100.00;98033.97;5001166;28;20551;-74
2021/03/19 07:41:13;;;;;;;26.10;21.30;;;;;;;-0.11;100.00;98036.03;4995793;28;20595;-72
2021/03/19 07:43:58;;;;;;;25.63;20.67;;;;;;;0.05;100.00;98048.06;4994877;28;20293;-70
2021/03/19 07:46:35;;;;;;;23.57;19.80;;;;;;;0.11;100.00;98052.91;4999991;28;20216;-73
2021/03/19 07:49:16;;;;;;;21.40;18.30;;;;;;;0.27;100.00;98056.22;4996259;28;20235;-70
2021/03/19 07:51:53;;;;;;;21.03;18.77;;;;;;;0.25;100.00;98058.09;4996146;28;20209;-71
2021/03/19 07:54:25;;;;;;;23.07;18.87;;;;;;;0.27;100.00;98058.84;4991376;28;20223;-71
2021/03/19 07:56:57;;;;;;;23.93;19.73;;;;;;;0.23;100.00;98059.97;4999446;28;20209;-71
2021/03/19 07:59:31;;;;;;;19.23;17.20;;;;;;;0.20;100.00;98062.75;5001262;28;20666;-70
2021/03/19 08:02:40;;;;;;;18.77;15.80;;;;;;;0.23;100.00;98074.75;5005398;28;20204;-70
2021/03/19 08:05:18;;;;;;;16.20;14.47;;;;;;;0.49;100.00;98073.09;4966143;28;20323;-71
2021/03/19 08:07:52;;;;;;;18.07;15.23;;;;;;;0.35;100.00;98066.16;5004402;28;20196;-69
2021/03/19 08:10:23;;;;;;;16.03;14.07;;;;;;;0.39;100.00;98072.88;4996689;28;20727;-71
2021/03/19 08:13:02;;;;;;;15.23;13.63;;;;;;;0.41;100.00;98062.31;5006215;28;20217;-70
2021/03/19 08:15:34;;;;;;;17.00;14.47;;;;;;;0.55;100.00;98074.47;5000707;28;20210;-68
2021/03/19 08:18:06;;;;;;;17.50;15.07;;;;;;;0.56;100.00;98078.75;5006550;28;20201;-72
2021/03/19 08:20:56;;;;;;;16.40;14.70;;;;;;;0.45;100.00;98078.63;5002837;28;20205;-70
2021/03/19 08:23:33;;;;;;;15.53;13.90;;;;;;;0.63;100.00;98074.00;5000311;28;20227;-70
2021/03/19 08:26:00;;;;;;;14.57;12.83;;;;;;;0.45;100.00;98076.84;5007130;28;20679;-70
2021/03/19 08:28:33;;;;;;;13.83;12.40;;;;;;;0.41;100.00;98070.16;4989222;28;20498;-69
2021/03/19 08:31:09;;;;;;;13.83;12.43;;;;;;;0.48;100.00;98083.63;4982796;28;20197;-67
2021/03/19 08:33:56;;;;;;;13.10;11.73;;;;;;;0.40;100.00;98078.91;5002251;28;20331;-68
2021/03/19 08:36:31;;;;;;;13.53;12.13;;;;;;;0.40;100.00;98086.72;5001935;28;20201;-70
2021/03/19 08:39:04;;;;;;;13.40;12.00;;;;;;;0.17;100.00;98083.78;5003500;28;20579;-70
2021/03/19 08:41:35;;;;;;;14.60;13.20;;;;;;;0.17;100.00;98086.38;5000475;28;20315;-70
2021/03/19 08:44:05;;;;;;;13.60;12.07;;;;;;;0.34;100.00;98100.16;5000512;28;20224;-69
2021/03/19 08:46:36;;;;;;;11.57;10.43;;;;;;;0.45;100.00;98095.09;5000894;28;20204;-70
2021/03/19 08:49:06;;;;;;;11.87;10.67;;;;;;;0.27;100.00;98097.94;5004824;28;20216;-70
2021/03/19 08:51:40;;;;;;;12.90;11.57;;;;;;;0.22;100.00;98099.16;5004106;28;20217;-70
2021/03/19 08:54:26;;;;;;;12.80;11.50;;;;;;;0.34;100.00;98098.38;5004908;28;20238;-67
2021/03/19 08:57:31;;;;;;;12.97;11.53;;;;;;;0.42;100.00;98105.72;4993755;28;20643;-67
2021/03/19 08:59:57;;;;;;;12.80;11.50;;;;;;;0.21;100.00;98108.75;4997574;28;20233;-67
2021/03/19 09:02:49;;;;;;;13.33;11.53;;;;;;;0.19;100.00;98108.00;4998985;28;20214;-71
2021/03/19 09:05:28;;;;;;;11.63;10.53;;;;;;;0.24;100.00;98112.91;5004264;28;20228;-68
2021/03/19 09:08:18;;;;;;;12.07;10.30;;;;;;;0.46;100.00;98117.63;5000664;28;20213;-71
2021/03/19 09:11:11;;;;;;;11.10;10.00;;;;;;;0.55;100.00;98119.63;4998596;28;20725;-70
2021/03/19 09:14:15;;;;;;;11.87;10.63;;;;;;;0.69;100.00;98126.59;4989288;28;20233;-68
2021/03/19 09:16:47;;;;;;;13.30;10.60;;;;;;;0.68;100.00;98126.69;4994122;28;20872;-69
2021/03/19 09:19:44;;;;;;;11.57;10.43;;;;;;;0.65;100.00;98125.09;4993914;28;20225;-68
2021/03/19 09:22:34;;;;;;;12.00;9.90;;;;;;;0.59;100.00;98122.06;4999213;28;20236;-69
2021/03/19 09:25:38;;;;;;;12.03;10.30;;;;;;;0.56;100.00;98129.13;4997366;28;20376;-68
2021/03/19 09:28:30;;;;;;;10.60;9.50;;;;;;;0.48;100.00;98131.41;5000201;28;20219;-70
2021/03/19 09:31:00;;;;;;;11.63;9.20;;;;;;;0.42;100.00;98137.00;5000644;28;20197;-70
2021/03/19 09:33:54;;;;;;;13.20;10.43;;;;;;;0.58;100.00;98139.47;5002014;28;20225;-69
2021/03/19 09:36:50;;;;;;;10.73;9.50;;;;;;;0.75;100.00;98141.00;5001871;28;20689;-70
2021/03/19 09:40:00;;;;;;;13.10;9.87;;;;;;;0.79;100.00;98139.06;5003058;28;20776;-72
2021/03/19 09:43:01;;;;;;;11.80;10.07;;;;;;;0.95;100.00;98136.31;5000830;28;20253;-70
2021/03/19 09:45:48;;;;;;;12.73;10.73;;;;;;;0.94;100.00;98142.41;4999348;28;20566;-69
2021/03/19 09:48:25;;;;;;;11.57;9.93;;;;;;;1.08;100.00;98145.00;5005860;28;20200;-69
2021/03/19 09:51:05;;;;;;;14.57;11.03;;;;;;;1.19;100.00;98149.50;4996920;28;20690;-68
2021/03/19 09:53:36;;;;;;;13.97;11.13;;;;;;;1.19;100.00;98151.28;5000538;28;20254;-68
2021/03/19 09:56:16;;;;;;;11.63;10.50;;;;;;;1.32;100.00;98149.53;5001084;28;20204;-69
2021/03/19 09:58:45;;;;;;;13.13;11.67;;;;;;;1.58;100.00;98150.41;4988011;28;20237;-69
2021/03/19 10:01:18;;;;;;;11.83;10.37;;;;;;;1.97;100.00;98147.78;4998467;28;20227;-72
2021/03/19 10:03:47;;;;;;;11.53;9.60;;;;;;;2.10;100.00;98139.13;5001705;28;20558;-72
2021/03/19 10:06:26;;;;;;;11.20;9.50;;;;;;;2.27;94.84;98141.38;4997540;28;20692;-69
2021/03/19 10:09:04;;;;;;;11.03;9.93;;;;;;;2.34;94.91;98140.94;4999545;28;20201;-69
2021/03/19 10:11:32;;;;;;;12.83;10.47;;;;;;;2.33;98.55;98139.25;5003336;28;20211;-69
2021/03/19 10:14:15;;;;;;;11.50;10.40;;;;;;;2.20;92.16;98140.13;5002026;28;20256;-70
2021/03/19 10:16:42;;;;;;;11.67;10.57;;;;;;;1.99;93.84;98138.06;4995139;28;20204;-71
2021/03/19 10:19:12;;;;;;;10.77;9.60;;;;;;;2.12;93.64;98137.22;5003305;28;20569;-70
2021/03/19 10:21:43;;;;;;;12.73;11.27;;;;;;;2.17;92.09;98140.34;5003623;28;20213;-71
2021/03/19 10:24:10;;;;;;;12.53;11.23;;;;;;;2.09;94.68;98143.50;4997610;28;20316;-69
2021/03/19 10:26:44;;;;;;;10.10;9.03;;;;;;;1.93;92.28;98143.72;5001364;28;20219;-69
2021/03/19 10:29:14;;;;;;;10.73;9.73;;;;;;;1.82;90.75;98147.06;4998803;28;20208;-71
2021/03/19 10:31:47;;;;;;;9.70;8.80;;;;;;;2.01;89.44;98151.84;5000334;28;20209;-68
2021/03/19 10:34:22;;;;;;;9.47;8.33;;;;;;;2.39;89.34;98152.75;5000739;28;20232;-69
2021/03/19 10:36:53;;;;;;;9.27;8.30;;;;;;;2.47;88.78;98144.38;5001625;28;20277;-71
2021/03/19 10:39:27;;;;;;;9.50;8.60;;;;;;;3.08;87.12;98145.28;4999470;28;20224;-71
2021/03/19 10:42:12;;;;;;;9.97;9.00;;;;;;;3.23;86.43;98144.16;5008382;28;20211;-72
2021/03/19 10:44:45;;;;;;;9.40;8.50;;;;;;;3.59;80.69;98146.72;5004011;28;20251;-72
2021/03/19 10:47:18;;;;;;;11.07;9.20;;;;;;;3.87;81.04;98147.25;5000614;28;20201;-72
2021/03/19 10:49:52;;;;;;;10.00;9.10;;;;;;;4.18;83.16;98155.38;5006044;28;20227;-72
2021/03/19 10:52:26;;;;;;;11.47;10.27;;;;;;;3.91;78.24;98156.56;5000963;28;20204;-71
2021/03/19 10:54:54;;;;;;;11.00;10.00;;;;;;;3.84;79.37;98148.34;5001093;28;20225;-73
2021/03/19 10:57:25;;;;;;;12.57;10.70;;;;;;;3.40;79.56;98161.22;5002724;28;20208;-70
2021/03/19 10:59:52;;;;;;;10.10;9.10;;;;;;;3.16;78.70;98161.25;4997811;28;20762;-72
2021/03/19 11:02:25;;;;;;;9.73;8.80;;;;;;;2.83;80.68;98158.34;4998804;28;20209;-71
2021/03/19 11:05:11;;;;;;;10.40;8.63;;;;;;;3.08;76.08;98164.44;4997621;28;20233;-71
2021/03/19 11:07:43;;;;;;;9.13;8.27;;;;;;;2.78;75.09;98160.47;4996774;28;20219;-70
2021/03/19 11:10:44;;;;;;;8.57;7.67;;;;;;;2.77;76.78;98157.97;5001855;28;20293;-71
2021/03/19 11:13:24;;;;;;;9.27;8.47;;;;;;;3.09;76.84;98155.63;4999026;28;20221;-70
2021/03/19 11:15:57;;;;;;;11.93;9.57;;;;;;;2.88;74.44;98156.28;5000048;28;20715;-70
2021/03/19 11:18:29;;;;;;;9.50;8.50;;;;;;;2.90;75.71;98158.75;4999187;28;20205;-70
2021/03/19 11:20:59;;;;;;;9.87;8.80;;;;;;;2.79;74.70;98162.16;5001251;28;20271;-70
2021/03/19 11:23:34;;;;;;;9.63;8.63;;;;;;;2.97;75.84;98161.78;5000641;28;20220;-71
2021/03/19 11:26:24;;;;;;;8.40;7.60;;;;;;;2.74;72.96;98161.63;4997681;28;20208;-71
2021/03/19 11:29:08;;;;;;;8.30;7.50;;;;;;;2.67;76.39;98160.41;4998816;28;20278;-68
2021/03/19 11:31:41;;;;;;;8.13;7.33;;;;;;;2.58;75.16;98167.13;4995825;28;20205;-70
2021/03/19 11:34:28;;;;;;;7.63;6.93;;;;;;;2.56;77.35;98166.41;4997481;28;20224;-68
2021/03/19 11:37:12;;;;;;;7.43;6.73;;;;;;;2.44;78.86;98166.34;5003179;28;20202;-69
2021/03/19 11:39:44;;;;;;;6.77;6.17;;;;;;;2.46;79.22;98164.44;5003273;28;20626;-69
2021/03/19 11:42:14;;;;;;;7.27;6.67;;;;;;;2.21;80.08;98164.50;5004130;28;20209;-71
2021/03/19 11:44:43;;;;;;;7.27;6.43;;;;;;;2.25;79.93;98164.19;5000630;28;20232;-70
2021/03/19 11:47:19;;;;;;;6.53;5.87;;;;;;;2.67;77.47;98176.13;5002585;28;20678;-69
2021/03/19 11:49:47;;;;;;;6.77;6.13;;;;;;;2.92;76.04;98174.38;4993900;28;20637;-67
2021/03/19 11:52:17;;;;;;;7.60;6.90;;;;;;;3.03;76.08;98174.41;4987769;28;20210;-68